Time;durP1;ratioP1;P1;durP2;ratioP2;P2;SDS_P1;SDS_P2;PMS_P1;PMS_P2;Temp;Humidity;BMP_temperature;BMP_pressure;BME280_temperature;BME280_humidity;BME280_pressure;Samples;Min_cycle;Max_cycle;Signal;HPM_P1;HPM_P2
2022/03/16 00:01:55;;;;;;;;;;;;;;;14.00;27.56;99556.66;4496408;31;34412;-83
2022/03/16 00:04:22;;;;;;;;;;;;;;;14.34;28.39;99543.78;4491629;31;32836;-83
2022/03/16 00:06:50;;;;;;;;;;;;;;;13.70;29.29;99543.47;4495051;31;34750;-82
2022/03/16 00:09:17;;;;;;;;;;;;;;;13.05;29.40;99539.47;4495129;31;34751;-83
2022/03/16 00:11:44;;;;;;;;;;;;;;;13.06;32.50;99551.63;4480798;31;33918;-83
2022/03/16 00:14:11;;;;;;;;;;;;;;;13.33;31.64;99551.00;4471264;31;33216;-82
2022/03/16 00:16:38;;;;;;;;;;;;;;;14.47;28.55;99544.69;4478912;32;33783;-83
2022/03/16 00:19:06;;;;;;;;;;;;;;;14.80;27.63;99543.94;4479836;32;33483;-82
2022/03/16 00:21:34;;;;;;;;;;;;;;;15.14;30.95;99539.59;4481553;32;34501;-82
2022/03/16 00:24:01;;;;;;;;;;;;;;;14.91;28.03;99538.72;4468017;32;34345;-82
2022/03/16 00:26:34;;;;;;;;;;;;;;;15.39;27.63;99534.38;4480693;32;34163;-83
2022/03/16 00:29:01;;;;;;;;;;;;;;;16.01;27.24;99529.03;4481021;32;34220;-81
2022/03/16 00:31:28;;;;;;;;;;;;;;;15.29;27.64;99528.28;4471728;32;34431;-82
2022/03/16 00:33:56;;;;;;;;;;;;;;;15.47;30.05;99533.50;4481667;32;33746;-82
2022/03/16 00:36:24;;;;;;;;;;;;;;;16.04;30.17;99523.81;4479825;32;35056;-84
2022/03/16 00:38:51;;;;;;;;;;;;;;;15.81;32.98;99520.41;4481139;32;34710;-83
2022/03/16 00:41:20;;;;;;;;;;;;;;;15.51;31.88;99523.91;4468994;32;34473;-83
2022/03/16 00:43:47;;;;;;;;;;;;;;;15.76;32.33;99516.94;4458742;32;34058;-81
2022/03/16 00:46:14;;;;;;;;;;;;;;;15.88;34.44;99521.25;4490672;31;34698;-83
2022/03/16 00:48:42;;;;;;;;;;;;;;;15.86;34.55;99523.88;4466698;32;34067;-82
2022/03/16 00:51:09;;;;;;;;;;;;;;;15.97;35.47;99521.22;4470253;31;33597;-82
2022/03/16 00:53:39;;;;;;;;;;;;;;;16.09;35.00;99508.09;4483881;31;33712;-83
2022/03/16 00:56:07;;;;;;;;;;;;;;;15.62;36.63;99505.63;4454062;32;33812;-82
2022/03/16 00:58:35;;;;;;;;;;;;;;;15.76;36.54;99501.25;4466793;32;34219;-83
2022/03/16 01:01:03;;;;;;;;;;;;;;;15.89;34.80;99491.63;4467749;32;34472;-83
2022/03/16 01:03:31;;;;;;;;;;;;;;;15.88;33.37;99487.28;4484046;31;34436;-82
2022/03/16 01:05:58;;;;;;;;;;;;;;;15.60;36.42;99494.28;4472995;31;33916;-81
2022/03/16 01:08:26;;;;;;;;;;;;;;;15.92;35.42;99495.09;4471405;31;35102;-84
2022/03/16 01:10:54;;;;;;;;;;;;;;;15.78;36.31;99492.50;4498087;31;34101;-84
2022/03/16 01:13:21;;;;;;;;;;;;;;;15.92;35.57;99487.25;4497144;31;33504;-83
2022/03/16 01:15:48;;;;;;;;;;;;;;;15.67;36.97;99496.03;4474739;32;34585;-83
2022/03/16 01:18:16;;;;;;;;;;;;;;;15.64;37.13;99504.72;4489303;31;35436;-83
2022/03/16 01:20:43;;;;;;;;;;;;;;;15.28;38.03;99510.88;4491344;31;33773;-83
2022/03/16 01:23:11;;;;;;;;;;;;;;;15.92;36.32;99508.16;4470805;31;32854;-83
2022/03/16 01:25:39;;;;;;;;;;;;;;;16.23;36.05;99508.03;4495920;31;33793;-84
2022/03/16 01:28:06;;;;;;;;;;;;;;;15.49;38.16;99523.94;4468805;32;34248;-83
2022/03/16 01:30:33;;;;;;;;;;;;;;;16.01;36.70;99533.41;4480901;32;34121;-83
2022/03/16 01:33:01;;;;;;;;;;;;;;;16.46;35.66;99539.31;4482062;32;33447;-81
2022/03/16 01:35:28;;;;;;;;;;;;;;;16.67;35.22;99538.34;4468432;32;34492;-83
2022/03/16 01:37:55;;;;;;;;;;;;;;;16.19;36.38;99542.94;4482344;32;33996;-83
2022/03/16 01:40:22;;;;;;;;;;;;;;;16.30;36.06;99541.16;4482588;32;35384;-83
2022/03/16 01:42:50;;;;;;;;;;;;;;;15.77;37.11;99547.44;4482896;32;32445;-81
2022/03/16 01:45:17;;;;;;;;;;;;;;;16.01;36.77;99552.59;4481710;32;33741;-83
2022/03/16 01:48:03;;;;;;;;;;;;;;;15.67;37.20;99553.53;4482721;32;34462;-83
2022/03/16 01:50:30;;;;;;;;;;;;;;;16.35;35.94;99535.87;4482429;32;34394;-82
2022/03/16 01:52:59;;;;;;;;;;;;;;;16.38;35.69;99536.75;4468010;32;34458;-81
2022/03/16 01:55:26;;;;;;;;;;;;;;;16.74;34.93;99542.69;4482293;32;34243;-82
2022/03/16 01:57:53;;;;;;;;;;;;;;;16.91;34.55;99532.97;4481181;32;35246;-82
2022/03/16 02:00:22;;;;;;;;;;;;;;;17.05;34.47;99529.37;4467750;32;34330;-83
2022/03/16 02:02:49;;;;;;;;;;;;;;;17.16;34.56;99527.53;4482565;32;33073;-83
2022/03/16 02:05:17;;;;;;;;;;;;;;;17.32;33.84;99526.53;4482342;32;34091;-83
2022/03/16 02:07:44;;;;;;;;;;;;;;;16.78;34.90;99533.91;4481932;32;34313;-82
2022/03/16 02:10:11;;;;;;;;;;;;;;;16.81;34.51;99531.28;4468017;32;33719;-83
2022/03/16 02:12:49;;;;;;;;;;;;;;;16.70;34.54;99527.84;4483300;31;33508;-83
2022/03/16 02:15:17;;;;;;;;;;;;;;;17.01;33.37;99529.41;4496987;31;34133;-82
2022/03/16 02:17:44;;;;;;;;;;;;;;;17.07;33.18;99509.28;4495776;31;35273;-83
2022/03/16 02:20:11;;;;;;;;;;;;;;;16.87;33.76;99509.44;4491010;31;35020;-83
2022/03/16 02:23:05;;;;;;;;;;;;;;;16.95;33.55;99511.13;4493287;31;32936;-82
2022/03/16 02:25:33;;;;;;;;;;;;;;;17.00;33.71;99511.94;4495255;31;35745;-82
2022/03/16 02:28:00;;;;;;;;;;;;;;;17.18;33.01;99507.44;4497087;31;34932;-82
2022/03/16 02:30:28;;;;;;;;;;;;;;;17.25;32.71;99503.91;4496874;31;34912;-83
2022/03/16 02:32:55;;;;;;;;;;;;;;;17.10;33.37;99497.03;4496334;31;33645;-84
2022/03/16 02:35:22;;;;;;;;;;;;;;;17.34;32.80;99485.44;4497360;31;34374;-83
2022/03/16 02:37:49;;;;;;;;;;;;;;;17.40;33.22;99471.44;4496750;31;35155;-84
2022/03/16 02:40:18;;;;;;;;;;;;;;;17.07;34.20;99472.59;4496487;31;34994;-83
2022/03/16 02:42:45;;;;;;;;;;;;;;;17.10;34.29;99472.59;4497940;31;33468;-84
2022/03/16 02:45:12;;;;;;;;;;;;;;;17.38;33.93;99465.31;4499253;31;34211;-83
2022/03/16 02:47:40;;;;;;;;;;;;;;;16.74;35.37;99466.75;4497026;31;34811;-82
2022/03/16 02:50:07;;;;;;;;;;;;;;;17.06;34.83;99463.88;4499271;31;34009;-83
2022/03/16 02:52:34;;;;;;;;;;;;;;;17.33;34.54;99448.78;4494466;31;33609;-83
2022/03/16 02:55:02;;;;;;;;;;;;;;;17.46;34.18;99450.38;4492450;31;33928;-84
2022/03/16 02:57:29;;;;;;;;;;;;;;;17.05;35.20;99448.16;4497479;31;34343;-84
2022/03/16 02:59:57;;;;;;;;;;;;;;;16.95;35.30;99450.00;4499217;31;34559;-83
2022/03/16 03:02:24;;;;;;;;;;;;;;;17.29;34.93;99442.72;4499443;31;34172;-84
2022/03/16 03:04:51;;;;;;;;;;;;;;;16.83;35.95;99445.75;4489538;31;35096;-84
2022/03/16 03:07:18;;;;;;;;;;;;;;;17.20;35.29;99442.81;4499072;31;34535;-84
2022/03/16 03:09:46;;;;;;;;;;;;;;;16.42;36.43;99440.78;4499348;31;34352;-82
2022/03/16 03:12:13;;;;;;;;;;;;;;;17.06;35.30;99436.84;4499654;31;33464;-84
2022/03/16 03:14:40;;;;;;;;;;;;;;;16.86;36.09;99436.97;4484974;31;33899;-84
2022/03/16 03:17:07;;;;;;;;;;;;;;;17.35;35.10;99426.94;4491384;31;35281;-83
2022/03/16 03:19:35;;;;;;;;;;;;;;;17.00;35.61;99430.75;4497532;31;34812;-83
2022/03/16 03:22:05;;;;;;;;;;;;;;;17.26;35.29;99429.63;4490155;31;32845;-82
2022/03/16 03:24:32;;;;;;;;;;;;;;;17.47;34.96;99416.31;4485134;31;34659;-83
2022/03/16 03:27:00;;;;;;;;;;;;;;;16.62;37.70;99424.94;4496189;31;34182;-82
2022/03/16 03:29:27;;;;;;;;;;;;;;;16.70;37.87;99416.13;4499170;31;34170;-83
2022/03/16 03:31:54;;;;;;;;;;;;;;;16.64;38.44;99405.72;4498622;31;34079;-83
2022/03/16 03:34:22;;;;;;;;;;;;;;;16.09;39.96;99386.91;4485580;31;33676;-82
2022/03/16 03:36:49;;;;;;;;;;;;;;;15.57;41.36;99375.81;4492811;31;35139;-82
2022/03/16 03:39:16;;;;;;;;;;;;;;;15.78;40.96;99376.63;4499148;31;34450;-83
2022/03/16 03:41:43;;;;;;;;;;;;;;;15.27;42.21;99371.56;4498447;31;34280;-81
2022/03/16 03:44:10;;;;;;;;;;;;;;;15.63;41.25;99364.47;4498915;31;34200;-81
2022/03/16 03:46:38;;;;;;;;;;;;;;;15.23;42.30;99358.53;4498966;31;33984;-82
2022/03/16 03:49:05;;;;;;;;;;;;;;;15.52;41.74;99351.44;4497498;31;33962;-83
2022/03/16 03:51:32;;;;;;;;;;;;;;;15.39;42.06;99357.59;4498566;31;32903;-84
2022/03/16 03:54:00;;;;;;;;;;;;;;;15.65;41.35;99349.69;4498149;31;33864;-83
2022/03/16 03:56:27;;;;;;;;;;;;;;;15.89;40.50;99343.47;4499052;31;33732;-83
2022/03/16 03:58:54;;;;;;;;;;;;;;;16.03;40.37;99331.16;4498707;31;33936;-83
2022/03/16 04:01:22;;;;;;;;;;;;;;;15.74;41.10;99330.47;4499419;31;33742;-83
2022/03/16 04:03:50;;;;;;;;;;;;;;;16.15;40.17;99342.44;4498883;31;34686;-82
2022/03/16 04:06:17;;;;;;;;;;;;;;;15.81;41.11;99332.19;4485416;31;34084;-83
2022/03/16 04:08:44;;;;;;;;;;;;;;;16.17;39.91;99324.97;4498569;31;34376;-83
2022/03/16 04:11:12;;;;;;;;;;;;;;;16.21;39.61;99329.28;4498498;31;32908;-83
2022/03/16 04:13:39;;;;;;;;;;;;;;;16.39;36.32;99304.72;4497126;31;33953;-83
2022/03/16 04:16:06;;;;;;;;;;;;;;;16.26;36.62;99301.38;4498833;31;34097;-83
2022/03/16 04:18:33;;;;;;;;;;;;;;;16.20;38.13;99317.97;4498759;31;34264;-83
2022/03/16 04:21:01;;;;;;;;;;;;;;;16.02;38.04;99316.38;4498588;31;33579;-82
2022/03/16 04:23:28;;;;;;;;;;;;;;;16.29;37.95;99309.19;4498511;31;33905;-83
2022/03/16 04:25:55;;;;;;;;;;;;;;;16.69;36.90;99309.69;4498436;31;35114;-83
2022/03/16 04:28:22;;;;;;;;;;;;;;;16.36;37.46;99315.22;4497925;31;34522;-84
2022/03/16 04:30:51;;;;;;;;;;;;;;;16.65;36.50;99317.59;4497240;31;34591;-83
2022/03/16 04:33:18;;;;;;;;;;;;;;;16.75;36.48;99314.03;4498028;31;34297;-83
2022/03/16 04:35:45;;;;;;;;;;;;;;;15.80;38.85;99315.63;4492465;31;35515;-84
2022/03/16 04:38:13;;;;;;;;;;;;;;;16.36;37.53;99316.09;4498889;31;35153;-84
2022/03/16 04:40:40;;;;;;;;;;;;;;;16.18;37.89;99317.13;4497235;31;33655;-82
2022/03/16 04:43:07;;;;;;;;;;;;;;;16.48;36.98;99305.53;4498170;31;33469;-83
2022/03/16 04:45:37;;;;;;;;;;;;;;;16.43;37.34;99312.53;4498397;31;34489;-82
2022/03/16 04:48:08;;;;;;;;;;;;;;;16.55;36.90;99316.78;4482020;31;34133;-83
2022/03/16 04:50:37;;;;;;;;;;;;;;;16.61;36.56;99308.91;4483346;32;34211;-83
2022/03/16 04:53:05;;;;;;;;;;;;;;;16.65;36.87;99317.59;4483273;32;32820;-83
2022/03/16 04:55:35;;;;;;;;;;;;;;;16.21;37.47;99314.47;4497803;31;34195;-82
2022/03/16 04:58:06;;;;;;;;;;;;;;;16.11;35.32;99319.78;4497615;31;34464;-82
2022/03/16 05:00:34;;;;;;;;;;;;;;;15.73;35.91;99324.38;4498385;31;33191;-83
2022/03/16 05:03:02;;;;;;;;;;;;;;;16.04;35.49;99334.66;4498496;31;33991;-83
2022/03/16 05:05:29;;;;;;;;;;;;;;;16.11;35.46;99335.47;4483077;31;35125;-83
2022/03/16 05:07:57;;;;;;;;;;;;;;;16.07;36.69;99339.00;4456737;32;781687;-83
2022/03/16 05:10:24;;;;;;;;;;;;;;;16.29;36.73;99340.59;4482287;31;33313;-82
2022/03/16 05:12:51;;;;;;;;;;;;;;;16.17;37.59;99341.50;4481451;32;34140;-82
2022/03/16 05:15:19;;;;;;;;;;;;;;;16.50;36.23;99358.72;4495416;31;34466;-82
2022/03/16 05:17:46;;;;;;;;;;;;;;;15.60;38.94;99353.16;4486577;31;34341;-83
2022/03/16 05:20:14;;;;;;;;;;;;;;;15.95;37.63;99361.72;4496538;31;33438;-82
2022/03/16 05:22:42;;;;;;;;;;;;;;;16.05;37.82;99355.53;4498582;31;33882;-83
2022/03/16 05:25:10;;;;;;;;;;;;;;;16.29;36.65;99361.50;4497989;31;34212;-83
2022/03/16 05:27:37;;;;;;;;;;;;;;;16.47;36.79;99363.09;4495668;31;34124;-83
2022/03/16 05:30:05;;;;;;;;;;;;;;;16.11;37.95;99359.88;4491460;31;33514;-83
2022/03/16 05:32:32;;;;;;;;;;;;;;;16.55;36.98;99361.28;4494207;31;33500;-84
2022/03/16 05:34:59;;;;;;;;;;;;;;;16.46;37.50;99357.00;4498417;31;33828;-82
2022/03/16 05:37:30;;;;;;;;;;;;;;;16.50;37.11;99347.38;4498405;31;35297;-82
2022/03/16 05:39:58;;;;;;;;;;;;;;;16.28;37.98;99349.28;4498162;31;33381;-83
2022/03/16 05:42:25;;;;;;;;;;;;;;;16.14;38.11;99348.50;4498448;31;33980;-82
2022/03/16 05:44:54;;;;;;;;;;;;;;;16.49;37.81;99337.81;4498348;31;34657;-82
2022/03/16 05:47:22;;;;;;;;;;;;;;;16.40;38.01;99348.31;4497760;31;34334;-83
2022/03/16 05:49:49;;;;;;;;;;;;;;;15.75;39.47;99340.03;4497662;31;33423;-83
2022/03/16 05:52:21;;;;;;;;;;;;;;;15.70;39.54;99340.06;4495727;31;33703;-83
2022/03/16 05:54:49;;;;;;;;;;;;;;;15.51;40.17;99343.63;4482458;31;34041;-82
2022/03/16 05:57:16;;;;;;;;;;;;;;;15.61;40.11;99349.66;4481077;32;34556;-82
2022/03/16 05:59:44;;;;;;;;;;;;;;;15.39;40.44;99359.34;4496904;31;32541;-82
2022/03/16 06:02:11;;;;;;;;;;;;;;;14.67;42.49;99377.78;4497910;31;33837;-82
2022/03/16 06:04:39;;;;;;;;;;;;;;;15.10;41.49;99383.81;4497583;31;34514;-82
2022/03/16 06:07:06;;;;;;;;;;;;;;;14.42;42.97;99397.72;4484264;31;34791;-83
2022/03/16 06:09:34;;;;;;;;;;;;;;;14.94;42.05;99392.53;4490420;31;33514;-82
2022/03/16 06:12:06;;;;;;;;;;;;;;;14.04;43.91;99391.56;4496695;31;34933;-82
2022/03/16 06:14:50;;;;;;;;;;;;;;;14.55;43.02;99400.38;4497417;31;34184;-83
2022/03/16 06:17:18;;;;;;;;;;;;;;;13.86;44.86;99396.72;4498114;31;35154;-82
2022/03/16 06:19:45;;;;;;;;;;;;;;;14.61;42.45;99399.50;4499429;31;33101;-82
2022/03/16 06:22:12;;;;;;;;;;;;;;;15.22;41.12;99398.56;4498815;31;33744;-82
2022/03/16 06:24:40;;;;;;;;;;;;;;;15.28;41.37;99398.56;4499106;31;33965;-82
2022/03/16 06:27:07;;;;;;;;;;;;;;;15.28;41.07;99393.34;4498727;31;34974;-82
2022/03/16 06:29:34;;;;;;;;;;;;;;;14.94;41.58;99390.78;4497691;31;31613;-83
2022/03/16 06:32:02;;;;;;;;;;;;;;;15.41;41.35;99391.56;4498439;31;34848;-83
2022/03/16 06:34:29;;;;;;;;;;;;;;;15.58;41.21;99390.63;4499016;31;34075;-83
2022/03/16 06:36:57;;;;;;;;;;;;;;;15.31;42.30;99394.19;4499683;31;35080;-83
2022/03/16 06:39:24;;;;;;;;;;;;;;;14.78;43.85;99400.38;4498942;31;33742;-83
2022/03/16 06:41:51;;;;;;;;;;;;;;;14.57;44.61;99396.03;4499047;31;33940;-82
2022/03/16 06:44:18;;;;;;;;;;;;;;;15.29;43.09;99382.00;4499155;31;34524;-82
2022/03/16 06:46:48;;;;;;;;;;;;;;;14.90;44.49;99396.88;4499356;31;34270;-83
2022/03/16 06:49:15;;;;;;;;;;;;;;;14.54;45.40;99406.44;4492767;31;33236;-82
2022/03/16 06:51:43;;;;;;;;;;;;;;;14.66;45.32;99403.00;4499517;31;33878;-81
2022/03/16 06:54:10;;;;;;;;;;;;;;;15.08;44.07;99409.94;4499538;31;35060;-81
2022/03/16 06:56:38;;;;;;;;;;;;;;;15.04;44.93;99405.59;4499061;31;34376;-82
2022/03/16 06:59:05;;;;;;;;;;;;;;;15.38;44.04;99409.84;4499424;31;33232;-82
2022/03/16 07:01:33;;;;;;;;;;;;;;;13.50;48.96;99413.97;4499485;31;34621;-82
2022/03/16 07:04:00;;;;;;;;;;;;;;;13.95;47.98;99412.41;4499636;31;34275;-82
2022/03/16 07:06:27;;;;;;;;;;;;;;;14.55;46.67;99410.81;4498692;31;33622;-82
2022/03/16 07:08:55;;;;;;;;;;;;;;;14.78;46.11;99423.00;4499227;31;32942;-82
2022/03/16 07:11:22;;;;;;;;;;;;;;;14.46;46.91;99421.19;4498994;31;34450;-83
2022/03/16 07:16:35;;;;;;;;;;;;;;;12.18;53.49;99433.72;4499076;31;35815;-83
2022/03/16 07:19:02;;;;;;;;;;;;;;;13.02;51.33;99430.13;4499230;31;34272;-83
2022/03/16 07:21:29;;;;;;;;;;;;;;;12.40;53.08;99423.56;4499464;31;35230;-84
2022/03/16 07:23:57;;;;;;;;;;;;;;;12.58;52.65;99434.12;4499644;31;34779;-83
2022/03/16 07:26:24;;;;;;;;;;;;;;;12.60;53.22;99432.41;4499386;31;34502;-83
2022/03/16 07:28:51;;;;;;;;;;;;;;;12.45;53.91;99429.66;4498749;31;33653;-84
2022/03/16 07:31:19;;;;;;;;;;;;;;;13.32;51.64;99432.09;4498281;31;35039;-83
2022/03/16 07:33:46;;;;;;;;;;;;;;;13.18;52.41;99425.91;4499427;31;33767;-84
2022/03/16 07:36:13;;;;;;;;;;;;;;;13.60;51.00;99425.31;4499554;31;35007;-83
2022/03/16 07:38:40;;;;;;;;;;;;;;;13.22;52.43;99427.66;4499422;31;33413;-79
2022/03/16 07:41:07;;;;;;;;;;;;;;;13.58;51.05;99417.47;4492920;31;34339;-83
2022/03/16 07:43:35;;;;;;;;;;;;;;;13.62;51.36;99419.22;4498894;31;34051;-84
2022/03/16 07:46:03;;;;;;;;;;;;;;;12.79;53.39;99425.62;4498122;31;33879;-84
2022/03/16 07:48:30;;;;;;;;;;;;;;;13.16;52.82;99425.91;4495537;31;35069;-84
2022/03/16 07:50:57;;;;;;;;;;;;;;;12.88;54.10;99438.72;4483383;31;34845;-83
2022/03/16 07:53:24;;;;;;;;;;;;;;;13.02;53.98;99437.94;4483360;32;34957;-83
2022/03/16 07:55:55;;;;;;;;;;;;;;;12.87;54.04;99441.28;4482955;32;33950;-84
2022/03/16 07:58:22;;;;;;;;;;;;;;;12.79;54.20;99440.38;4489459;31;32798;-82
2022/03/16 08:00:50;;;;;;;;;;;;;;;13.59;52.02;99440.06;4498659;31;33932;-83
2022/03/16 08:03:17;;;;;;;;;;;;;;;12.68;54.63;99444.59;4498781;31;35158;-83
2022/03/16 08:05:47;;;;;;;;;;;;;;;12.85;54.10;99443.91;4498934;31;34437;-83
2022/03/16 08:08:14;;;;;;;;;;;;;;;13.58;52.42;99442.66;4499128;31;32981;-83
2022/03/16 08:10:41;;;;;;;;;;;;;;;14.25;50.59;99439.44;4498848;31;33767;-83
2022/03/16 08:13:08;;;;;;;;;;;;;;;13.41;52.45;99447.78;4498712;31;34580;-83
2022/03/16 08:15:36;;;;;;;;;;;;;;;12.68;55.28;99452.41;4498907;31;35221;-83
2022/03/16 08:18:03;;;;;;;;;;;;;;;12.91;54.17;99450.88;4498432;31;34137;-82
2022/03/16 08:20:30;;;;;;;;;;;;;;;12.22;56.63;99457.16;4498361;31;34860;-83
2022/03/16 08:22:57;;;;;;;;;;;;;;;13.10;53.76;99462.28;4498913;31;35262;-83
2022/03/16 08:25:45;;;;;;;;;;;;;;;13.58;52.30;99453.09;4498741;31;34965;-83
2022/03/16 08:28:12;;;;;;;;;;;;;;;14.60;49.41;99448.22;4498822;31;33974;-83
2022/03/16 08:30:40;;;;;;;;;;;;;;;13.19;53.42;99461.50;4498737;31;33562;-83
2022/03/16 08:33:07;;;;;;;;;;;;;;;13.22;53.05;99451.09;4497471;31;35245;-83
2022/03/16 08:35:35;;;;;;;;;;;;;;;12.91;53.93;99458.66;4498871;31;35311;-82
2022/03/16 08:38:02;;;;;;;;;;;;;;;12.63;54.92;99473.19;4498489;31;34548;-83
2022/03/16 08:40:29;;;;;;;;;;;;;;;13.14;53.19;99462.34;4498197;31;33864;-83
2022/03/16 08:42:57;;;;;;;;;;;;;;;12.99;53.44;99476.94;4498820;31;34544;-83
2022/03/16 08:45:25;;;;;;;;;;;;;;;12.80;54.07;99476.78;4498603;31;34220;-83
2022/03/16 08:47:52;;;;;;;;;;;;;;;13.55;52.20;99469.56;4498766;31;34108;-83
2022/03/16 08:50:19;;;;;;;;;;;;;;;12.98;53.56;99481.28;4498551;31;34718;-84
2022/03/16 08:52:49;;;;;;;;;;;;;;;13.13;53.71;99485.75;4498827;31;34382;-83
2022/03/16 08:55:17;;;;;;;;;;;;;;;14.28;50.94;99483.75;4498676;31;34123;-83
2022/03/16 08:57:44;;;;;;;;;;;;;;;13.83;52.08;99490.56;4498432;31;34172;-83
2022/03/16 09:00:15;;;;;;;;;;;;;;;13.88;51.98;99499.25;4498673;31;34231;-83
2022/03/16 09:02:42;;;;;;;;;;;;;;;13.30;53.85;99510.22;4497473;31;33841;-84
2022/03/16 09:05:10;;;;;;;;;;;;;;;13.26;54.13;99502.34;4498483;31;34466;-83
2022/03/16 09:07:38;;;;;;;;;;;;;;;13.23;53.96;99505.81;4498528;31;32961;-83
2022/03/16 09:10:06;;;;;;;;;;;;;;;12.85;55.21;99508.06;4498455;31;33728;-83
2022/03/16 09:12:33;;;;;;;;;;;;;;;12.57;55.80;99510.38;4498280;31;35387;-83
2022/03/16 09:15:01;;;;;;;;;;;;;;;14.19;51.46;99497.66;4498395;31;35110;-83
2022/03/16 09:17:30;;;;;;;;;;;;;;;13.51;52.97;99499.06;4498620;31;33568;-83
2022/03/16 09:19:58;;;;;;;;;;;;;;;14.06;51.55;99504.56;4498097;31;34227;-85
2022/03/16 09:22:25;;;;;;;;;;;;;;;13.43;52.96;99516.38;4498193;31;34741;-84
2022/03/16 09:24:52;;;;;;;;;;;;;;;13.58;52.39;99518.22;4497520;31;33950;-82
2022/03/16 09:27:19;;;;;;;;;;;;;;;13.09;53.56;99525.62;4491968;31;32947;-83
2022/03/16 09:29:47;;;;;;;;;;;;;;;12.91;53.62;99532.41;4497173;31;35047;-83
2022/03/16 09:32:14;;;;;;;;;;;;;;;13.65;51.92;99526.94;4496771;31;34412;-84
2022/03/16 09:34:42;;;;;;;;;;;;;;;13.39;51.42;99532.84;4480573;32;33869;-84
2022/03/16 09:37:10;;;;;;;;;;;;;;;12.05;55.04;99540.16;4482177;32;33053;-83
2022/03/16 09:39:38;;;;;;;;;;;;;;;12.74;53.52;99548.72;4482297;32;34503;-84
2022/03/16 09:42:05;;;;;;;;;;;;;;;11.14;58.64;99546.56;4482434;32;34586;-84
2022/03/16 09:44:33;;;;;;;;;;;;;;;11.74;57.06;99547.47;4482446;32;34772;-83
2022/03/16 09:47:02;;;;;;;;;;;;;;;11.04;59.79;99560.25;4496592;31;33053;-83
2022/03/16 09:49:30;;;;;;;;;;;;;;;10.46;61.96;99578.19;4496851;31;33716;-82
2022/03/16 09:51:58;;;;;;;;;;;;;;;10.81;61.32;99574.53;4497009;31;33548;-83
2022/03/16 09:54:25;;;;;;;;;;;;;;;10.99;60.10;99569.66;4498963;31;34497;-83
2022/03/16 09:56:54;;;;;;;;;;;;;;;11.30;60.07;99580.56;4500049;31;33399;-83
2022/03/16 09:59:21;;;;;;;;;;;;;;;11.95;57.73;99578.12;4498875;31;33643;-83
2022/03/16 10:01:57;;;;;;;;;;;;;;;12.22;56.89;99567.22;4500130;31;35320;-83
2022/03/16 10:04:30;;;;;;;;;;;;;;;11.42;59.49;99579.03;4500001;31;35269;-83
2022/03/16 10:06:59;;;;;;;;;;;;;;;11.62;58.76;99581.94;4495578;31;33783;-80
2022/03/16 10:15:10;;;;;;;;;;;;;;;11.36;60.01;99584.13;4490612;31;33756;-81
2022/03/16 10:17:44;;;;;;;;;;;;;;;11.86;58.49;99586.66;4497961;31;33763;-82
2022/03/16 10:20:19;;;;;;;;;;;;;;;11.33;59.74;99583.22;4486428;31;35077;-80
2022/03/16 10:22:52;;;;;;;;;;;;;;;11.25;59.90;99601.25;4494285;31;34369;-81
2022/03/16 10:25:20;;;;;;;;;;;;;;;12.11;56.70;99576.59;4498691;31;34479;-81
2022/03/16 10:27:47;;;;;;;;;;;;;;;11.86;57.59;99588.41;4499805;31;34230;-81
2022/03/16 10:30:14;;;;;;;;;;;;;;;12.53;55.16;99596.19;4499312;31;35015;-79
2022/03/16 10:32:54;;;;;;;;;;;;;;;10.89;60.27;99593.69;4498095;31;34537;-83
2022/03/16 10:35:23;;;;;;;;;;;;;;;11.11;59.50;99598.41;4496465;31;35742;-81
2022/03/16 10:37:51;;;;;;;;;;;;;;;11.21;58.82;99594.25;4493459;31;33432;-81
2022/03/16 10:40:19;;;;;;;;;;;;;;;10.77;60.51;99591.75;4497908;31;34252;-79
2022/03/16 10:48:21;;;;;;;;;;;;;;;11.42;57.77;99591.16;4483694;32;34222;-78
2022/03/16 10:50:49;;;;;;;;;;;;;;;11.60;57.51;99596.63;4484004;32;34136;-79
2022/03/16 10:53:17;;;;;;;;;;;;;;;12.16;55.59;99593.12;4483911;32;34331;-80
2022/03/16 10:55:45;;;;;;;;;;;;;;;11.25;58.87;99603.84;4492527;31;33820;-80
2022/03/16 10:58:13;;;;;;;;;;;;;;;11.79;57.42;99602.09;4498261;31;33792;-81
2022/03/16 11:00:40;;;;;;;;;;;;;;;11.14;58.73;99603.66;4498438;31;33767;-81
2022/03/16 11:03:15;;;;;;;;;;;;;;;10.92;60.07;99601.53;4499133;31;34312;-81
2022/03/16 11:05:43;;;;;;;;;;;;;;;11.07;59.26;99599.22;4499787;31;34577;-80
2022/03/16 11:08:10;;;;;;;;;;;;;;;10.53;61.05;99612.00;4499793;31;33624;-80
2022/03/16 11:10:38;;;;;;;;;;;;;;;11.23;59.16;99613.31;4499386;31;34062;-79
2022/03/16 11:16:06;;;;;;;;;;;;;;;11.26;58.61;99615.97;4481035;31;34407;-82
2022/03/16 11:18:33;;;;;;;;;;;;;;;10.40;61.19;99629.03;4498155;31;34427;-82
2022/03/16 11:21:02;;;;;;;;;;;;;;;11.98;56.74;99619.75;4498121;31;35082;-81
2022/03/16 11:26:23;;;;;;;;;;;;;;;11.69;56.32;99614.94;4483947;31;35323;-81
2022/03/16 11:28:53;;;;;;;;;;;;;;;11.88;55.95;99620.44;4485581;31;33646;-81
2022/03/16 11:31:25;;;;;;;;;;;;;;;11.55;56.86;99621.63;4495285;31;35206;-80
2022/03/16 11:33:52;;;;;;;;;;;;;;;11.91;55.18;99621.38;4498120;31;35030;-79
2022/03/16 11:36:32;;;;;;;;;;;;;;;10.61;58.47;99626.03;4499082;31;34443;-79
2022/03/16 11:39:02;;;;;;;;;;;;;;;11.40;56.95;99631.75;4499397;31;32947;-80
2022/03/16 11:41:29;;;;;;;;;;;;;;;11.75;54.93;99631.50;4499218;31;34954;-80
2022/03/16 11:44:00;;;;;;;;;;;;;;;10.42;59.20;99622.19;4499725;31;34041;-81
2022/03/16 11:46:29;;;;;;;;;;;;;;;10.44;59.60;99629.13;4499327;31;34273;-80
2022/03/16 11:48:59;;;;;;;;;;;;;;;10.26;60.24;99639.09;4497899;31;34241;-81
2022/03/16 11:51:26;;;;;;;;;;;;;;;10.94;58.35;99633.56;4491546;31;35154;-82
2022/03/16 11:54:01;;;;;;;;;;;;;;;10.79;58.11;99628.94;4486160;31;34318;-83
2022/03/16 11:56:29;;;;;;;;;;;;;;;10.37;59.82;99641.91;4483510;32;34008;-82
2022/03/16 11:59:02;;;;;;;;;;;;;;;10.79;58.79;99635.84;4483375;32;34254;-81
2022/03/16 12:01:39;;;;;;;;;;;;;;;10.68;58.20;99638.22;4485988;31;34991;-82
2022/03/16 12:07:04;;;;;;;;;;;;;;;11.26;56.47;99652.31;4493456;31;35434;-81
2022/03/16 12:09:49;;;;;;;;;;;;;;;11.96;54.05;99643.94;4499167;31;33278;-81
2022/03/16 12:15:25;;;;;;;;;;;;;;;12.28;53.24;99647.88;4485465;31;33658;-82
2022/03/16 12:17:56;;;;;;;;;;;;;;;11.17;56.40;99645.25;4498064;31;34552;-82
2022/03/16 12:20:24;;;;;;;;;;;;;;;12.02;53.66;99644.91;4499219;31;33424;-81
2022/03/16 12:22:53;;;;;;;;;;;;;;;11.69;54.36;99651.31;4498354;31;34973;-83
2022/03/16 12:25:26;;;;;;;;;;;;;;;12.01;53.57;99663.97;4497285;31;34354;-80
2022/03/16 12:30:43;;;;;;;;;;;;;;;11.86;54.41;99658.53;4483440;32;33362;-82
2022/03/16 12:33:11;;;;;;;;;;;;;;;12.02;53.81;99651.84;4486077;31;33865;-80
2022/03/16 12:35:38;;;;;;;;;;;;;;;11.40;55.95;99647.34;4488486;31;34236;-81
2022/03/16 12:38:08;;;;;;;;;;;;;;;12.78;52.28;99646.78;4497105;31;34314;-82
2022/03/16 12:43:28;;;;;;;;;;;;;;;12.66;51.56;99640.56;4494420;31;34032;-80
2022/03/16 12:45:58;;;;;;;;;;;;;;;12.58;51.44;99655.22;4497261;31;34277;-80
2022/03/16 12:48:26;;;;;;;;;;;;;;;12.27;51.94;99664.31;4495543;31;33848;-83
2022/03/16 12:50:53;;;;;;;;;;;;;;;12.56;50.75;99663.84;4486974;31;33598;-83
2022/03/16 12:53:47;;;;;;;;;;;;;;;11.60;53.24;99674.53;4497941;31;34068;-80
2022/03/16 12:56:16;;;;;;;;;;;;;;;12.20;51.67;99677.19;4495213;31;35278;-81
2022/03/16 12:59:02;;;;;;;;;;;;;;;11.45;53.60;99684.66;4483257;31;34499;-80
2022/03/16 13:01:29;;;;;;;;;;;;;;;11.88;52.19;99694.06;4497781;31;33783;-79
2022/03/16 13:04:03;;;;;;;;;;;;;;;13.04;49.32;99692.19;4497792;31;34287;-80
2022/03/16 13:06:33;;;;;;;;;;;;;;;11.66;52.21;99703.19;4496233;31;34532;-80
2022/03/16 13:09:05;;;;;;;;;;;;;;;11.54;52.18;99708.19;4495698;31;34879;-80
2022/03/16 13:11:32;;;;;;;;;;;;;;;11.85;51.45;99714.78;4497570;31;33480;-81
2022/03/16 13:14:19;;;;;;;;;;;;;;;11.18;52.77;99719.66;4489553;31;34250;-80
2022/03/16 13:16:48;;;;;;;;;;;;;;;11.33;52.61;99728.59;4498098;31;32923;-80
2022/03/16 13:19:24;;;;;;;;;;;;;;;12.13;50.01;99723.91;4497884;31;35039;-82
2022/03/16 13:22:02;;;;;;;;;;;;;;;12.08;49.89;99717.75;4498362;31;32638;-82
2022/03/16 13:24:35;;;;;;;;;;;;;;;13.01;47.35;99723.38;4497458;31;33902;-81
2022/03/16 13:27:06;;;;;;;;;;;;;;;12.21;49.44;99729.22;4496483;31;34522;-82